Terminal Aerodrome Forecast
Issued by NWS Jackson, MS

Home | Current Version | Previous Version | Text Only | Print | Product List | Glossary On
Versions: 1 2 3 4 5 6 7 8 9 10 11 12 13 14 15 16 17
000
FTUS44 KJAN 261100
TAFGLH
TAF
KGLH 261127Z 2612/2712 00000KT P6SM SKC
     FM261400 25009KT P6SM FEW050=

USA.gov is the U.S. government's official web portal to all federal, state and local government web resources and services.